createdAt,value
2018-06-19T00:01:20.693Z,10.60
2018-06-19T00:03:49.741Z,10.03
2018-06-19T00:06:19.004Z,10.03
2018-06-19T00:08:47.703Z,10.00
2018-06-19T00:11:16.903Z,9.90
2018-06-19T00:13:46.324Z,10.37
2018-06-19T00:16:16.148Z,10.37
2018-06-19T00:18:49.942Z,10.47
2018-06-19T00:21:26.508Z,10.33
2018-06-19T00:23:55.165Z,10.83
2018-06-19T00:26:24.430Z,9.83
2018-06-19T00:28:54.282Z,10.17
2018-06-19T00:31:23.365Z,10.17
2018-06-19T00:33:52.009Z,10.20
2018-06-19T00:36:23.537Z,10.70
2018-06-19T00:38:53.771Z,10.30
2018-06-19T00:41:23.033Z,10.30
2018-06-19T00:43:52.558Z,10.73
2018-06-19T00:46:23.878Z,10.80
2018-06-19T00:48:52.490Z,10.47
2018-06-19T00:51:21.396Z,10.20
2018-06-19T00:53:50.293Z,9.90
2018-06-19T00:56:30.785Z,10.50
2018-06-19T00:58:59.681Z,10.50
2018-06-19T01:01:29.259Z,10.23
2018-06-19T01:03:58.851Z,10.80
2018-06-19T01:06:28.675Z,10.77
2018-06-19T01:08:57.303Z,10.33
2018-06-19T01:11:25.922Z,10.60
2018-06-19T01:13:54.870Z,11.00
2018-06-19T01:16:23.864Z,10.80
2018-06-19T01:18:52.481Z,10.10
2018-06-19T01:21:21.779Z,10.97
2018-06-19T01:23:50.985Z,10.27
2018-06-19T01:26:20.930Z,10.10
2018-06-19T01:28:50.904Z,10.33
2018-06-19T01:31:19.900Z,11.60
2018-06-19T01:33:48.507Z,10.30
2018-06-19T01:36:17.529Z,10.63
2018-06-19T01:38:46.413Z,10.90
2018-06-19T01:41:14.980Z,10.40
2018-06-19T01:43:43.897Z,10.30
2018-06-19T01:46:12.854Z,11.20
2018-06-19T01:48:41.477Z,11.47
2018-06-19T01:51:10.673Z,10.70
2018-06-19T01:53:39.666Z,11.30
2018-06-19T01:56:08.309Z,11.17
2018-06-19T01:58:37.244Z,10.70
2018-06-19T02:01:07.857Z,10.83
2018-06-19T02:03:36.548Z,10.53
2018-06-19T02:06:07.192Z,11.00
2018-06-19T02:08:36.197Z,11.27
2018-06-19T02:11:05.118Z,11.30
2018-06-19T02:13:35.521Z,10.97
2018-06-19T02:16:04.861Z,10.90
2018-06-19T02:18:35.447Z,11.10
2018-06-19T02:21:04.432Z,11.23
2018-06-19T02:23:33.457Z,11.03
2018-06-19T02:26:03.682Z,11.03
2018-06-19T02:28:34.678Z,11.30
2018-06-19T02:31:04.940Z,10.60
2018-06-19T02:33:35.154Z,11.10
2018-06-19T02:36:06.187Z,11.07
2018-06-19T02:38:34.869Z,11.50
2018-06-19T02:41:05.522Z,10.83
2018-06-19T02:43:36.118Z,11.67
2018-06-19T02:46:05.082Z,11.17
2018-06-19T02:48:34.112Z,11.57
2018-06-19T02:51:02.761Z,10.97
2018-06-19T02:53:31.662Z,10.70
2018-06-19T02:56:00.533Z,11.07
2018-06-19T02:58:29.224Z,10.83
2018-06-19T03:00:58.158Z,11.40
2018-06-19T03:03:28.615Z,11.30
2018-06-19T03:05:58.029Z,11.07
2018-06-19T03:08:27.160Z,11.70
2018-06-19T03:10:58.197Z,11.10
2018-06-19T03:13:29.042Z,11.43
2018-06-19T03:15:58.483Z,11.40
2018-06-19T03:18:27.822Z,11.63
2018-06-19T03:20:56.794Z,11.70
2018-06-19T03:23:25.988Z,12.00
2018-06-19T03:25:54.605Z,12.33
2018-06-19T03:28:23.298Z,11.20
2018-06-19T03:30:52.036Z,10.57
2018-06-19T03:33:21.611Z,11.47
2018-06-19T03:35:50.638Z,11.67
2018-06-19T03:38:19.547Z,11.30
2018-06-19T03:40:48.161Z,11.80
2018-06-19T03:43:17.155Z,12.70
2018-06-19T03:45:45.865Z,11.50
2018-06-19T03:48:14.801Z,12.30
2018-06-19T03:50:43.487Z,10.93
2018-06-19T03:53:12.386Z,11.80
2018-06-19T03:55:41.268Z,12.10
2018-06-19T03:58:09.899Z,11.97
2018-06-19T04:00:38.592Z,12.17
2018-06-19T04:03:07.898Z,11.70
2018-06-19T04:05:36.525Z,11.60
2018-06-19T04:08:05.223Z,11.60
2018-06-19T04:10:34.043Z,12.40
2018-06-19T04:13:03.096Z,12.47
2018-06-19T04:15:32.107Z,12.37
2018-06-19T04:18:00.723Z,13.50
2018-06-19T04:20:29.789Z,12.80
2018-06-19T04:22:59.236Z,13.63
2018-06-19T04:25:27.894Z,13.93
2018-06-19T04:27:56.503Z,12.43
2018-06-19T04:30:25.661Z,13.23
2018-06-19T04:32:54.582Z,12.57
2018-06-19T04:35:25.110Z,12.70
2018-06-19T04:37:54.180Z,13.03
2018-06-19T04:40:23.411Z,13.20
2018-06-19T04:42:52.082Z,12.73
2018-06-19T04:45:20.708Z,12.77
2018-06-19T04:47:51.845Z,12.93
2018-06-19T04:50:21.691Z,12.50
2018-06-19T04:52:51.294Z,12.63
2018-06-19T04:55:19.946Z,12.50
2018-06-19T04:57:48.876Z,13.50
2018-06-19T05:00:17.867Z,13.30
2018-06-19T05:02:46.785Z,12.73
2018-06-19T05:05:15.445Z,12.43
2018-06-19T05:07:44.168Z,12.80
2018-06-19T05:10:12.871Z,11.73
2018-06-19T05:12:41.869Z,13.00
2018-06-19T05:15:12.367Z,12.90
2018-06-19T05:17:41.789Z,11.90
2018-06-19T05:20:11.070Z,12.70
2018-06-19T05:22:39.694Z,12.73
2018-06-19T05:25:08.747Z,12.23
2018-06-19T05:27:37.954Z,13.30
2018-06-19T05:30:07.036Z,13.07
2018-06-19T05:32:36.003Z,12.40
2018-06-19T05:35:04.789Z,13.60
2018-06-19T05:37:33.715Z,13.00
2018-06-19T05:40:02.408Z,14.13
2018-06-19T05:42:31.412Z,14.27
2018-06-19T05:45:00.309Z,13.93
2018-06-19T05:47:29.013Z,15.37
2018-06-19T05:49:57.886Z,15.40
2018-06-19T05:52:27.098Z,15.37
2018-06-19T05:54:56.279Z,16.03
2018-06-19T05:57:25.189Z,16.43
2018-06-19T05:59:53.803Z,15.67
2018-06-19T06:02:22.801Z,14.60
2018-06-19T06:04:51.712Z,14.80
2018-06-19T06:07:21.307Z,15.43
2018-06-19T06:09:50.368Z,16.73
2018-06-19T06:12:19.304Z,17.50
2018-06-19T06:14:47.922Z,15.90
2018-06-19T06:17:16.595Z,17.33
2018-06-19T06:19:47.051Z,17.63
2018-06-19T06:22:16.875Z,16.47
2018-06-19T06:24:46.204Z,15.63
2018-06-19T06:27:15.633Z,17.37
2018-06-19T06:29:44.254Z,16.00
2018-06-19T06:32:12.869Z,16.30
2018-06-19T06:34:42.072Z,15.90
2018-06-19T06:37:10.859Z,15.27
2018-06-19T06:39:39.472Z,16.30
2018-06-19T06:42:08.169Z,17.93
2018-06-19T06:44:36.864Z,15.80
2018-06-19T06:47:05.783Z,15.57
2018-06-19T06:49:34.552Z,14.30
2018-06-19T06:52:03.592Z,15.70
2018-06-19T06:54:32.278Z,15.23
2018-06-19T06:57:02.140Z,16.10
2018-06-19T06:59:32.455Z,16.13
2018-06-19T07:02:01.087Z,17.37
2018-06-19T07:04:31.607Z,15.10
2018-06-19T07:07:00.555Z,16.43
2018-06-19T07:09:29.165Z,16.50
2018-06-19T07:11:57.845Z,15.97
2018-06-19T07:14:27.228Z,15.93
2018-06-19T07:16:55.815Z,15.63
2018-06-19T07:19:24.529Z,14.20
2018-06-19T07:21:53.666Z,15.13
2018-06-19T07:24:22.249Z,15.50
2018-06-19T07:26:51.191Z,14.80
2018-06-19T07:29:19.871Z,16.57
2018-06-19T07:31:48.856Z,17.30
2018-06-19T07:34:17.444Z,15.10
2018-06-19T07:36:46.125Z,15.30
2018-06-19T07:39:15.274Z,14.57
2018-06-19T07:41:44.319Z,15.13
2018-06-19T07:44:13.464Z,15.00
2018-06-19T07:46:42.094Z,14.80
2018-06-19T07:49:11.051Z,14.37
2018-06-19T07:51:39.924Z,20.10
2018-06-19T07:54:08.613Z,14.13
2018-06-19T07:56:37.209Z,13.57
2018-06-19T07:59:06.137Z,13.27
2018-06-19T08:01:35.102Z,13.13
2018-06-19T08:04:03.994Z,13.50
2018-06-19T08:06:32.980Z,13.83
2018-06-19T08:09:01.794Z,14.50
2018-06-19T08:11:30.973Z,13.20
2018-06-19T08:13:59.670Z,13.77
2018-06-19T08:16:28.361Z,13.00
2018-06-19T08:18:56.967Z,14.30
2018-06-19T08:21:25.934Z,14.20
2018-06-19T08:23:54.559Z,15.00
2018-06-19T08:26:23.159Z,13.53
2018-06-19T08:28:51.824Z,13.50
2018-06-19T08:31:20.774Z,13.50
2018-06-19T08:33:50.007Z,13.70
2018-06-19T08:36:18.933Z,13.40
2018-06-19T08:38:47.590Z,13.60
2018-06-19T08:41:16.200Z,13.70
2018-06-19T08:43:44.786Z,13.30
2018-06-19T08:46:13.559Z,13.00
2018-06-19T08:48:42.349Z,12.60
2018-06-19T08:51:11.494Z,12.13
2018-06-19T08:53:40.652Z,11.73
2018-06-19T08:56:09.714Z,12.50
2018-06-19T08:58:38.333Z,12.53
2018-06-19T09:01:07.278Z,12.33
2018-06-19T09:03:35.941Z,12.40
2018-06-19T09:06:04.649Z,12.10
2018-06-19T09:08:33.548Z,11.80
2018-06-19T09:11:02.438Z,11.50
2018-06-19T09:13:31.133Z,11.67
2018-06-19T09:16:00.316Z,12.10
2018-06-19T09:18:29.021Z,12.13
2018-06-19T09:20:57.653Z,11.93
2018-06-19T09:23:26.540Z,11.53
2018-06-19T09:25:55.221Z,10.93
2018-06-19T09:28:24.206Z,11.47
2018-06-19T09:30:52.867Z,11.00
2018-06-19T09:33:21.528Z,11.50
2018-06-19T09:35:50.453Z,11.93
2018-06-19T09:38:19.126Z,11.87
2018-06-19T09:40:47.898Z,12.93
2018-06-19T09:43:17.429Z,12.00
2018-06-19T09:45:46.192Z,10.63
2018-06-19T09:48:15.690Z,11.57
2018-06-19T09:50:46.644Z,10.80
2018-06-19T09:53:15.408Z,10.83
2018-06-19T09:55:44.087Z,11.57
2018-06-19T09:58:12.765Z,10.83
2018-06-19T10:00:42.322Z,11.37
2018-06-19T10:03:11.012Z,10.60
2018-06-19T10:05:40.813Z,11.40
2018-06-19T10:08:11.560Z,10.60
2018-06-19T10:10:40.555Z,11.20
2018-06-19T10:13:09.174Z,10.80
2018-06-19T10:15:37.831Z,10.80
2018-06-19T10:18:06.512Z,10.73
2018-06-19T10:20:35.173Z,10.90
2018-06-19T10:23:04.225Z,10.93
2018-06-19T10:25:32.850Z,10.80
2018-06-19T10:28:02.079Z,11.33
2018-06-19T10:30:31.015Z,10.57
2018-06-19T10:32:59.962Z,10.87
2018-06-19T10:35:28.925Z,10.70
2018-06-19T10:37:57.591Z,10.37
2018-06-19T10:40:26.591Z,10.30
2018-06-19T10:42:55.508Z,10.47
2018-06-19T10:45:24.195Z,10.37
2018-06-19T10:47:52.851Z,11.03
2018-06-19T10:50:21.528Z,11.13
2018-06-19T10:52:50.885Z,10.00
2018-06-19T10:55:19.786Z,9.93
2018-06-19T10:57:48.662Z,9.90
2018-06-19T11:00:17.375Z,9.43
2018-06-19T11:02:46.440Z,10.30
2018-06-19T11:05:15.357Z,9.90
2018-06-19T11:07:43.976Z,9.83
2018-06-19T11:10:12.602Z,10.10
2018-06-19T11:12:41.220Z,9.70
2018-06-19T11:15:09.832Z,9.90
2018-06-19T11:17:38.778Z,10.00
2018-06-19T11:20:07.422Z,10.83
2018-06-19T11:22:36.401Z,9.67
2018-06-19T11:25:05.363Z,9.50
2018-06-19T11:27:34.252Z,9.60
2018-06-19T11:30:02.868Z,9.80
2018-06-19T11:32:32.478Z,9.63
2018-06-19T11:35:01.399Z,10.20
2018-06-19T11:37:31.661Z,10.47
2018-06-19T11:40:00.555Z,10.43
2018-06-19T11:42:29.164Z,9.50
2018-06-19T11:44:57.835Z,10.17
2018-06-19T11:47:27.127Z,9.60
2018-06-19T11:49:55.763Z,9.50
2018-06-19T11:52:24.663Z,9.73
2018-06-19T11:54:54.438Z,10.87
2018-06-19T11:57:23.132Z,9.90
2018-06-19T11:59:51.846Z,10.43
2018-06-19T12:02:20.889Z,9.67
2018-06-19T12:04:49.544Z,10.20
2018-06-19T12:07:18.592Z,9.90
2018-06-19T12:09:47.270Z,10.33
2018-06-19T12:12:15.965Z,10.17
2018-06-19T12:14:45.850Z,10.50
2018-06-19T12:17:15.903Z,9.30
2018-06-19T12:19:45.114Z,10.30
2018-06-19T12:22:13.764Z,9.90
2018-06-19T12:24:42.496Z,10.50
2018-06-19T12:27:11.149Z,10.00
2018-06-19T12:29:40.321Z,9.90
2018-06-19T12:32:09.274Z,10.00
2018-06-19T12:34:38.317Z,9.50
2018-06-19T12:37:07.299Z,9.30
2018-06-19T12:39:35.950Z,9.70
2018-06-19T12:42:04.717Z,9.60
2018-06-19T12:44:33.429Z,10.10
2018-06-19T12:47:02.515Z,9.80
2018-06-19T12:49:42.233Z,10.20
2018-06-19T12:52:22.042Z,10.40
2018-06-19T12:55:31.357Z,9.73
2018-06-19T12:58:00.405Z,9.97
2018-06-19T13:00:29.065Z,10.00
2018-06-19T13:03:08.799Z,10.33
2018-06-19T13:06:40.899Z,9.40
2018-06-19T13:09:09.878Z,10.47
2018-06-19T13:11:38.693Z,9.73
2018-06-19T13:14:18.661Z,9.83
2018-06-19T13:16:58.318Z,10.27
2018-06-19T13:19:38.241Z,9.80
2018-06-19T13:22:06.927Z,10.27
2018-06-19T13:24:35.666Z,9.90
2018-06-19T13:27:04.616Z,9.83
2018-06-19T13:29:49.179Z,10.20
2018-06-19T13:32:17.895Z,9.80
2018-06-19T13:34:46.617Z,10.17
2018-06-19T13:37:15.502Z,10.10
2018-06-19T13:39:44.764Z,10.70
2018-06-19T13:43:28.237Z,10.03
2018-06-19T13:45:56.825Z,10.20
2018-06-19T13:48:25.535Z,10.60
2018-06-19T13:50:54.197Z,10.60
2018-06-19T13:53:22.907Z,10.70
2018-06-19T13:56:11.564Z,10.20
2018-06-19T13:58:40.555Z,10.37
2018-06-19T14:01:09.765Z,10.30
2018-06-19T14:03:38.677Z,9.80
2018-06-19T14:06:07.451Z,10.43
2018-06-19T14:08:46.513Z,10.47
2018-06-19T14:11:26.257Z,9.70
2018-06-19T14:13:55.007Z,11.50
2018-06-19T14:16:23.811Z,9.80
2018-06-19T14:18:52.523Z,9.90
2018-06-19T14:21:21.194Z,9.50
2018-06-19T14:23:50.049Z,10.37
2018-06-19T14:26:18.725Z,10.47
2018-06-19T14:28:47.637Z,10.00
2018-06-19T14:31:16.213Z,9.60
2018-06-19T14:33:45.313Z,9.90
2018-06-19T14:36:13.913Z,10.27
2018-06-19T14:38:42.596Z,9.50
2018-06-19T14:41:11.204Z,9.60
2018-06-19T14:43:40.267Z,9.93
2018-06-19T14:46:09.203Z,9.90
2018-06-19T14:48:37.915Z,9.67
2018-06-19T14:51:06.569Z,9.90
2018-06-19T14:53:35.193Z,10.27
2018-06-19T14:56:03.881Z,10.10
2018-06-19T14:58:32.546Z,10.60
2018-06-19T15:01:01.605Z,9.70
2018-06-19T15:03:30.230Z,14.50
2018-06-19T15:05:59.179Z,10.60
2018-06-19T15:08:28.099Z,10.23
2018-06-19T15:10:57.299Z,10.40
2018-06-19T15:13:26.499Z,9.93
2018-06-19T15:15:55.232Z,10.63
2018-06-19T15:18:23.960Z,10.37
2018-06-19T15:20:52.569Z,11.37
2018-06-19T15:23:21.255Z,10.10
2018-06-19T15:25:50.298Z,9.73
2018-06-19T15:28:18.951Z,10.20
2018-06-19T15:30:47.946Z,11.33
2018-06-19T15:33:16.987Z,10.20
2018-06-19T15:35:45.670Z,10.30
2018-06-19T15:38:14.340Z,10.93
2018-06-19T15:40:44.597Z,10.00
2018-06-19T15:43:17.943Z,10.80
2018-06-19T15:45:49.230Z,11.67
2018-06-19T15:48:20.351Z,10.40
2018-06-19T15:50:51.009Z,11.03
2018-06-19T15:56:02.891Z,11.33
2018-06-19T15:58:31.971Z,10.50
2018-06-19T16:01:00.738Z,11.30
2018-06-19T16:03:33.565Z,10.70
2018-06-19T16:06:07.353Z,10.50
2018-06-19T16:08:36.036Z,10.47
2018-06-19T16:11:05.643Z,11.10
2018-06-19T16:13:35.026Z,10.17
2018-06-19T16:16:03.745Z,9.63
2018-06-19T16:18:32.799Z,10.23
2018-06-19T16:21:01.842Z,10.27
2018-06-19T16:23:30.587Z,10.00
2018-06-19T16:25:59.615Z,10.07
2018-06-19T16:28:29.010Z,10.13
2018-06-19T16:30:57.877Z,9.70
2018-06-19T16:33:26.696Z,10.20
2018-06-19T16:35:55.427Z,9.73
2018-06-19T16:38:24.136Z,10.13
2018-06-19T16:40:53.140Z,9.80
2018-06-19T16:43:22.181Z,9.73
2018-06-19T16:45:51.378Z,9.30
2018-06-19T16:48:20.373Z,9.90
2018-06-19T16:50:49.380Z,9.23
2018-06-19T16:53:18.314Z,8.80
2018-06-19T16:55:47.359Z,9.53
2018-06-19T16:58:16.077Z,9.53
2018-06-19T17:00:44.949Z,9.00
2018-06-19T17:03:13.562Z,9.07
2018-06-19T17:05:42.226Z,9.20
2018-06-19T17:08:11.267Z,9.10
2018-06-19T17:10:40.313Z,9.33
2018-06-19T17:13:09.271Z,9.37
2018-06-19T17:15:37.949Z,9.30
2018-06-19T17:18:06.841Z,9.00
2018-06-19T17:20:35.547Z,9.07
2018-06-19T17:23:04.260Z,9.10
2018-06-19T17:25:33.294Z,9.27
2018-06-19T17:28:02.877Z,9.20
2018-06-19T17:30:31.561Z,9.37
2018-06-19T17:33:00.283Z,9.50
2018-06-19T17:35:29.199Z,9.73
2018-06-19T17:37:57.880Z,8.90
2018-06-19T17:40:26.859Z,10.37
2018-06-19T17:42:55.541Z,9.80
2018-06-19T17:45:24.634Z,9.97
2018-06-19T17:47:53.959Z,10.00
2018-06-19T17:50:27.639Z,9.77
2018-06-19T17:52:56.273Z,10.37
2018-06-19T17:55:25.074Z,11.17
2018-06-19T17:57:53.802Z,11.03
2018-06-19T18:00:22.613Z,10.30
2018-06-19T18:02:51.602Z,9.60
2018-06-19T18:05:23.494Z,9.50
2018-06-19T18:07:52.754Z,9.83
2018-06-19T18:10:22.493Z,9.40
2018-06-19T18:12:55.934Z,10.13
2018-06-19T18:15:24.997Z,10.33
2018-06-19T18:17:56.710Z,10.13
2018-06-19T18:20:29.627Z,10.20
2018-06-19T18:23:01.009Z,9.80
2018-06-19T18:25:31.323Z,10.87
2018-06-19T18:28:00.196Z,12.73
2018-06-19T18:30:31.636Z,11.70
2018-06-19T18:33:00.474Z,10.27
2018-06-19T18:35:29.331Z,10.20
2018-06-19T18:37:59.109Z,10.60
2018-06-19T18:40:34.104Z,10.00
2018-06-19T18:43:04.151Z,10.93
2018-06-19T18:45:33.282Z,10.17
2018-06-19T18:48:02.182Z,9.53
2018-06-19T18:50:33.455Z,9.40
2018-06-19T18:53:02.176Z,9.47
2018-06-19T18:55:33.160Z,9.60
2018-06-19T18:58:02.183Z,11.30
2018-06-19T19:00:32.685Z,15.73
2018-06-19T19:03:01.651Z,10.77
2018-06-19T19:05:33.622Z,9.70
2018-06-19T19:08:04.454Z,9.50
2018-06-19T19:10:40.146Z,9.40
2018-06-19T19:13:11.109Z,9.30
2018-06-19T19:15:45.150Z,9.67
2018-06-19T19:18:19.954Z,9.80
2018-06-19T19:20:51.673Z,9.77
2018-06-19T19:23:21.409Z,9.17
2018-06-19T19:25:52.997Z,9.43
2018-06-19T19:28:29.654Z,10.10
2018-06-19T19:30:59.486Z,9.47
2018-06-19T19:33:28.511Z,9.90
2018-06-19T19:35:57.112Z,9.77
2018-06-19T19:38:31.465Z,9.30
2018-06-19T19:41:00.491Z,9.73
2018-06-19T19:43:29.588Z,9.97
2018-06-19T19:45:58.834Z,9.93
2018-06-19T19:48:32.915Z,9.80
2018-06-19T19:51:01.962Z,9.23
2018-06-19T19:53:31.206Z,9.53
2018-06-19T19:56:04.889Z,10.07
2018-06-19T19:58:38.696Z,9.83
2018-06-19T20:01:07.473Z,9.70
2018-06-19T20:03:36.186Z,10.50
2018-06-19T20:06:05.342Z,9.70
2018-06-19T20:08:34.106Z,9.93
2018-06-19T20:11:03.562Z,10.00
2018-06-19T20:13:32.546Z,10.17
2018-06-19T20:16:01.271Z,10.00
2018-06-19T20:18:30.289Z,10.40
2018-06-19T20:20:59.017Z,9.90
2018-06-19T20:23:27.633Z,10.03
2018-06-19T20:25:56.496Z,10.90
2018-06-19T20:28:26.145Z,10.30
2018-06-19T20:30:54.829Z,12.80
2018-06-19T20:33:23.551Z,10.00
2018-06-19T20:35:52.289Z,10.03
2018-06-19T20:38:21.059Z,10.60
2018-06-19T20:40:49.709Z,10.47
2018-06-19T20:43:18.396Z,10.13
2018-06-19T20:45:47.359Z,10.30
2018-06-19T20:48:16.322Z,10.50
2018-06-19T20:50:45.035Z,10.37
2018-06-19T20:53:13.687Z,10.60
2018-06-19T20:55:42.579Z,10.07
2018-06-19T20:58:11.235Z,9.80
2018-06-19T21:00:40.266Z,10.33
2018-06-19T21:03:09.817Z,10.53
2018-06-19T21:05:38.824Z,10.43
2018-06-19T21:08:08.808Z,10.40
2018-06-19T21:10:37.841Z,10.50
2018-06-19T21:13:06.553Z,9.90
2018-06-19T21:15:35.498Z,10.40
2018-06-19T21:18:04.153Z,10.13
2018-06-19T21:20:32.980Z,10.10
2018-06-19T21:23:01.636Z,10.30
2018-06-19T21:25:30.581Z,10.83
2018-06-19T21:27:59.538Z,10.30
2018-06-19T21:30:28.125Z,9.87
2018-06-19T21:32:57.751Z,10.03
2018-06-19T21:35:26.369Z,10.37
2018-06-19T21:37:55.074Z,10.60
2018-06-19T21:40:24.324Z,10.30
2018-06-19T21:42:52.939Z,10.43
2018-06-19T21:45:21.606Z,11.20
2018-06-19T21:47:50.232Z,10.50
2018-06-19T21:50:18.834Z,11.27
2018-06-19T21:52:47.837Z,10.57
2018-06-19T21:55:16.421Z,10.60
2018-06-19T21:57:45.041Z,10.57
2018-06-19T22:00:14.036Z,10.97
2018-06-19T22:02:43.416Z,10.80
2018-06-19T22:05:12.010Z,10.60
2018-06-19T22:07:40.602Z,11.00
2018-06-19T22:10:09.543Z,10.70
2018-06-19T22:12:38.397Z,10.93
2018-06-19T22:15:07.012Z,11.17
2018-06-19T22:17:35.898Z,10.37
2018-06-19T22:20:04.560Z,11.17
2018-06-19T22:22:34.268Z,10.13
2018-06-19T22:25:03.125Z,10.67
2018-06-19T22:27:31.745Z,10.90
2018-06-19T22:30:00.595Z,11.20
2018-06-19T22:32:29.173Z,10.50
2018-06-19T22:34:58.000Z,11.37
2018-06-19T22:37:27.748Z,10.97
2018-06-19T22:39:56.695Z,11.03
2018-06-19T22:42:25.306Z,10.70
2018-06-19T22:44:53.936Z,10.80
2018-06-19T22:47:24.334Z,12.30
2018-06-19T22:49:53.553Z,11.07
2018-06-19T22:52:23.704Z,11.00
2018-06-19T22:54:54.567Z,11.27
2018-06-19T22:57:23.464Z,10.60
2018-06-19T22:59:52.879Z,10.70
2018-06-19T23:02:22.401Z,10.70
2018-06-19T23:04:52.374Z,10.63
2018-06-19T23:07:22.786Z,10.80
2018-06-19T23:09:52.811Z,10.57
2018-06-19T23:12:21.720Z,10.00
2018-06-19T23:14:50.305Z,10.83
2018-06-19T23:17:19.504Z,10.57
2018-06-19T23:19:48.092Z,10.80
2018-06-19T23:22:16.691Z,11.13
2018-06-19T23:24:45.601Z,10.77
2018-06-19T23:27:14.861Z,10.63
2018-06-19T23:29:43.480Z,10.60
2018-06-19T23:32:12.464Z,11.30
2018-06-19T23:34:41.086Z,11.70
2018-06-19T23:37:10.047Z,10.83
2018-06-19T23:39:38.680Z,11.03
2018-06-19T23:42:07.362Z,11.50
2018-06-19T23:44:35.966Z,10.83
2018-06-19T23:47:04.605Z,11.03
2018-06-19T23:49:33.315Z,11.17
2018-06-19T23:52:01.913Z,11.00
2018-06-19T23:54:30.801Z,10.80
2018-06-19T23:56:59.396Z,11.37
2018-06-19T23:59:28.644Z,11.10
